LSZH/ZRH METAR and TAF weather

Enter ICAO airport designator
Station Type Date Time Source
LSZH METAR 2020/12/01 21:50 UTC NOAA

LSZH 012150Z 35001KT 9999 OVC010 01/00 Q1016 R88/29//// BECMG BKN008


Station Type Date Time Source
LSZH Decoded METAR 2020/12/01 21:50 UTC NOAA

Zurich-Kloten, Switzerland (LSZH) 47-29N 008-32E 432M
Dec 01, 2020 - 04:50 PM EST / 2020.12.01 2150 UTC
Wind: from the N (350 degrees) at 1 MPH (1 KT):0
Visibility: greater than 7 mile(s):0
Sky conditions: overcast
Temperature: 33 F (1 C)
Dew Point: 32 F (0 C)
Relative Humidity: 93%
Pressure (altimeter): 30.00 in. Hg (1016 hPa)
ob: LSZH 012150Z 35001KT 9999 OVC010 01/00 Q1016 R88/29//// BECMG BKN008
cycle: 22

Station Type Date Time Source
LSZH TAF 2020/12/01 21:37 UTC NOAA

TAF LSZH 012025Z 0121/0303 10003KT 9999 FEW004 OVC009 TX02/0215Z TNM01/0205Z PROB40 0121/0208 4000 BKN004 PROB30 0202/0206 1500 BCFG
BECMG 0204/0207 03006KT BKN011
TEMPO 0207/0216 BKN016
BECMG 0216/0218 BKN016 PROB30 0216/0220 3500 -SN BKN012
BECMG 0216/0219 VRB03KT
BECMG 0223/0302 4500 BR

Example: see airport list